createdAt,value
2018-02-19T00:00:07.726Z,46.00
2018-02-19T00:01:07.663Z,43.00
2018-02-19T00:02:07.604Z,42.80
2018-02-19T00:03:07.536Z,45.10
2018-02-19T00:04:07.475Z,42.70
2018-02-19T00:05:07.418Z,46.40
2018-02-19T00:06:07.350Z,45.60
2018-02-19T00:07:07.285Z,43.20
2018-02-19T00:08:07.223Z,42.90
2018-02-19T00:09:07.162Z,44.90
2018-02-19T00:10:07.100Z,43.10
2018-02-19T00:11:07.034Z,42.80
2018-02-19T00:12:06.974Z,45.60
2018-02-19T00:13:06.910Z,42.80
2018-02-19T00:14:06.849Z,43.10
2018-02-19T00:15:06.785Z,44.30
2018-02-19T00:16:06.721Z,43.10
2018-02-19T00:17:06.659Z,43.60
2018-02-19T00:18:06.600Z,46.60
2018-02-19T00:19:06.583Z,43.00
2018-02-19T00:20:06.471Z,45.10
2018-02-19T00:21:06.408Z,44.60
2018-02-19T00:22:06.348Z,45.30
2018-02-19T00:23:06.282Z,44.40
2018-02-19T00:24:06.220Z,45.20
2018-02-19T00:25:06.158Z,45.30
2018-02-19T00:26:06.096Z,43.60
2018-02-19T00:27:06.032Z,47.50
2018-02-19T00:28:05.972Z,47.70
2018-02-19T00:29:05.908Z,45.80
2018-02-19T00:30:05.847Z,46.70
2018-02-19T00:31:05.780Z,45.00
2018-02-19T00:32:05.726Z,44.50
2018-02-19T00:33:05.657Z,43.70
2018-02-19T00:34:05.595Z,46.40
2018-02-19T00:35:05.528Z,45.20
2018-02-19T00:36:05.470Z,45.30
2018-02-19T00:37:05.406Z,47.00
2018-02-19T00:38:05.343Z,43.20
2018-02-19T00:39:05.278Z,44.00
2018-02-19T00:40:05.217Z,45.20
2018-02-19T00:41:05.153Z,46.10
2018-02-19T00:42:05.090Z,45.90
2018-02-19T00:43:05.027Z,47.50
2018-02-19T00:44:04.968Z,45.50
2018-02-19T00:45:04.902Z,46.50
2018-02-19T00:46:04.841Z,45.00
2018-02-19T00:47:04.777Z,44.80
2018-02-19T00:48:04.717Z,45.60
2018-02-19T00:49:04.651Z,44.60
2018-02-19T00:50:04.588Z,42.90
2018-02-19T00:51:04.525Z,42.80
2018-02-19T00:52:04.463Z,42.00
2018-02-19T00:53:04.400Z,46.00
2018-02-19T00:54:04.337Z,48.20
2018-02-19T00:55:04.275Z,47.50
2018-02-19T00:56:04.214Z,43.70
2018-02-19T00:57:04.149Z,46.50
2018-02-19T00:58:04.086Z,46.70
2018-02-19T00:59:04.031Z,44.30
2018-02-19T01:00:03.963Z,46.80
2018-02-19T01:01:03.901Z,45.80
2018-02-19T01:02:03.837Z,45.10
2018-02-19T01:03:03.773Z,45.50
2018-02-19T01:04:03.710Z,47.80
2018-02-19T01:05:03.649Z,46.20
2018-02-19T01:06:03.589Z,45.90
2018-02-19T01:07:03.521Z,48.00
2018-02-19T01:08:03.461Z,49.10
2018-02-19T01:09:03.394Z,46.20
2018-02-19T01:10:03.334Z,48.30
2018-02-19T01:11:03.271Z,45.40
2018-02-19T01:12:03.207Z,48.30
2018-02-19T01:13:03.143Z,45.00
2018-02-19T01:14:03.080Z,46.10
2018-02-19T01:15:03.020Z,46.20
2018-02-19T01:16:02.956Z,49.30
2018-02-19T01:17:02.895Z,48.90
2018-02-19T01:18:02.832Z,44.90
2018-02-19T01:19:02.767Z,48.90
2018-02-19T01:20:02.704Z,50.20
2018-02-19T01:21:02.640Z,47.20
2018-02-19T01:22:02.581Z,49.60
2018-02-19T01:23:02.514Z,51.80
2018-02-19T01:24:02.457Z,49.40
2018-02-19T01:25:02.390Z,47.30
2018-02-19T01:26:02.329Z,46.40
2018-02-19T01:27:02.266Z,48.60
2018-02-19T01:28:02.203Z,50.30
2018-02-19T01:29:02.138Z,50.70
2018-02-19T01:30:02.077Z,48.60
2018-02-19T01:31:02.013Z,50.40
2018-02-19T01:32:01.950Z,50.60
2018-02-19T01:33:01.889Z,50.40
2018-02-19T01:34:01.828Z,50.70
2018-02-19T01:35:01.763Z,52.00
2018-02-19T01:36:01.700Z,47.80
2018-02-19T01:37:01.641Z,49.60
2018-02-19T01:38:01.579Z,49.10
2018-02-19T01:39:01.515Z,52.20
2018-02-19T01:40:01.450Z,51.30
2018-02-19T01:41:01.384Z,52.00
2018-02-19T01:42:01.332Z,52.40
2018-02-19T01:43:01.261Z,49.30
2018-02-19T01:44:01.202Z,48.10
2018-02-19T01:45:01.133Z,49.70
2018-02-19T01:46:01.076Z,49.90
2018-02-19T01:47:01.008Z,49.90
2018-02-19T01:48:00.943Z,49.90
2018-02-19T01:49:00.881Z,50.30
2018-02-19T01:50:00.819Z,48.80
2018-02-19T01:51:00.760Z,47.30
2018-02-19T01:52:00.695Z,49.10
2018-02-19T01:53:00.631Z,50.30
2018-02-19T01:54:00.572Z,52.70
2018-02-19T01:55:00.506Z,53.70
2018-02-19T01:56:00.442Z,50.60
2018-02-19T01:57:00.381Z,50.10
2018-02-19T01:58:00.321Z,52.40
2018-02-19T01:59:00.255Z,49.80
2018-02-19T02:00:00.191Z,47.30
2018-02-19T02:01:00.130Z,52.40
2018-02-19T02:02:00.074Z,49.60
2018-02-19T02:03:00.006Z,48.10
2018-02-19T02:03:59.943Z,47.30
2018-02-19T02:04:59.883Z,50.70
2018-02-19T02:05:59.817Z,49.30
2018-02-19T02:06:59.758Z,49.60
2018-02-19T02:07:59.692Z,53.00
2018-02-19T02:08:59.630Z,50.40
2018-02-19T02:09:59.572Z,52.80
2018-02-19T02:10:59.508Z,50.90
2018-02-19T02:11:59.443Z,51.00
2018-02-19T02:12:59.379Z,49.20
2018-02-19T02:13:59.317Z,49.00
2018-02-19T02:14:59.254Z,50.70
2018-02-19T02:15:59.192Z,49.30
2018-02-19T02:16:59.130Z,57.00
2018-02-19T02:17:59.066Z,50.80
2018-02-19T02:18:59.006Z,52.80
2018-02-19T02:19:58.940Z,51.20
2018-02-19T02:20:58.880Z,54.40
2018-02-19T02:21:58.817Z,53.10
2018-02-19T02:22:58.754Z,53.60
2018-02-19T02:23:58.691Z,51.60
2018-02-19T02:24:58.630Z,55.00
2018-02-19T02:25:58.566Z,48.80
2018-02-19T02:26:58.509Z,54.20
2018-02-19T02:27:58.441Z,51.30
2018-02-19T02:28:58.382Z,54.80
2018-02-19T02:29:58.319Z,52.40
2018-02-19T02:30:58.256Z,54.80
2018-02-19T02:31:58.200Z,54.30
2018-02-19T02:32:58.132Z,58.30
2018-02-19T02:33:58.068Z,53.80
2018-02-19T02:34:58.005Z,53.30
2018-02-19T02:35:57.942Z,53.40
2018-02-19T02:36:57.881Z,52.60
2018-02-19T02:37:57.820Z,53.10
2018-02-19T02:38:57.754Z,53.50
2018-02-19T02:39:57.693Z,51.80
2018-02-19T02:40:57.629Z,49.90
2018-02-19T02:41:57.569Z,51.20
2018-02-19T02:42:57.504Z,52.00
2018-02-19T02:43:57.443Z,52.90
2018-02-19T02:44:57.382Z,51.30
2018-02-19T02:45:57.321Z,55.60
2018-02-19T02:46:57.259Z,53.00
2018-02-19T02:47:57.193Z,55.20
2018-02-19T02:48:57.133Z,55.40
2018-02-19T02:49:57.069Z,53.40
2018-02-19T02:50:57.006Z,51.70
2018-02-19T02:51:56.946Z,55.20
2018-02-19T02:52:56.885Z,53.20
2018-02-19T02:53:56.822Z,52.70
2018-02-19T02:54:56.757Z,53.90
2018-02-19T02:55:56.695Z,53.80
2018-02-19T02:56:56.636Z,53.80
2018-02-19T02:57:56.571Z,51.20
2018-02-19T02:58:56.508Z,52.70
2018-02-19T02:59:56.445Z,48.90
2018-02-19T03:00:56.384Z,52.90
2018-02-19T03:01:56.323Z,52.00
2018-02-19T03:02:56.261Z,53.80
2018-02-19T03:03:56.196Z,53.60
2018-02-19T03:04:56.134Z,53.60
2018-02-19T03:05:56.073Z,55.10
2018-02-19T03:06:56.009Z,54.20
2018-02-19T03:07:55.947Z,51.40
2018-02-19T03:08:55.885Z,54.00
2018-02-19T03:09:55.825Z,53.70
2018-02-19T03:10:55.762Z,53.80
2018-02-19T03:11:55.702Z,54.50
2018-02-19T03:12:55.638Z,51.60
2018-02-19T03:13:55.574Z,52.60
2018-02-19T03:14:55.512Z,55.00
2018-02-19T03:15:55.453Z,53.30
2018-02-19T03:16:55.389Z,54.20
2018-02-19T03:17:55.327Z,56.20
2018-02-19T03:18:55.263Z,52.90
2018-02-19T03:19:55.202Z,53.70
2018-02-19T03:20:55.140Z,54.20
2018-02-19T03:21:55.086Z,48.80
2018-02-19T03:22:55.014Z,53.00
2018-02-19T03:23:54.951Z,52.30
2018-02-19T03:24:54.891Z,48.40
2018-02-19T03:25:54.832Z,55.10
2018-02-19T03:26:54.767Z,50.80
2018-02-19T03:27:54.706Z,54.60
2018-02-19T03:28:54.643Z,53.50
2018-02-19T03:29:54.581Z,53.20
2018-02-19T03:30:54.519Z,55.10
2018-02-19T03:31:54.456Z,53.10
2018-02-19T03:32:54.396Z,54.50
2018-02-19T03:33:54.332Z,54.40
2018-02-19T03:34:54.269Z,54.20
2018-02-19T03:35:54.212Z,54.40
2018-02-19T03:36:54.146Z,56.40
2018-02-19T03:37:54.086Z,53.60
2018-02-19T03:38:54.025Z,55.00
2018-02-19T03:39:53.962Z,55.40
2018-02-19T03:40:53.899Z,54.80
2018-02-19T03:41:53.836Z,54.90
2018-02-19T03:42:53.774Z,53.00
2018-02-19T03:43:53.715Z,52.40
2018-02-19T03:44:53.650Z,54.10
2018-02-19T03:45:53.589Z,50.30
2018-02-19T03:46:53.528Z,51.80
2018-02-19T03:47:53.464Z,55.40
2018-02-19T03:48:53.402Z,55.20
2018-02-19T03:49:53.343Z,54.10
2018-02-19T03:50:53.280Z,52.30
2018-02-19T03:51:53.223Z,52.30
2018-02-19T03:52:53.158Z,50.70
2018-02-19T03:53:53.093Z,54.00
2018-02-19T03:54:53.031Z,52.90
2018-02-19T03:55:52.974Z,51.40
2018-02-19T03:56:52.909Z,54.10
2018-02-19T03:57:52.844Z,55.90
2018-02-19T03:58:52.785Z,55.70
2018-02-19T03:59:52.720Z,52.10
2018-02-19T04:00:52.662Z,56.10
2018-02-19T04:01:52.600Z,56.80
2018-02-19T04:02:52.535Z,55.00
2018-02-19T04:03:52.475Z,53.10
2018-02-19T04:04:52.410Z,53.90
2018-02-19T04:05:52.352Z,55.60
2018-02-19T04:06:52.290Z,56.30
2018-02-19T04:07:52.227Z,60.20
2018-02-19T04:08:52.163Z,54.40
2018-02-19T04:09:52.102Z,56.90
2018-02-19T04:10:52.038Z,54.70
2018-02-19T04:11:51.976Z,56.20
2018-02-19T04:12:51.914Z,55.20
2018-02-19T04:13:51.853Z,51.70
2018-02-19T04:14:51.790Z,58.30
2018-02-19T04:15:51.729Z,58.80
2018-02-19T04:16:51.667Z,56.20
2018-02-19T04:17:51.606Z,54.10
2018-02-19T04:18:51.540Z,53.40
2018-02-19T04:19:51.478Z,55.10
2018-02-19T04:20:51.421Z,53.70
2018-02-19T04:21:51.355Z,53.60
2018-02-19T04:22:51.293Z,55.90
2018-02-19T04:23:51.232Z,54.50
2018-02-19T04:24:51.171Z,56.00
2018-02-19T04:25:51.110Z,56.20
2018-02-19T04:26:51.048Z,56.90
2018-02-19T04:27:50.982Z,60.80
2018-02-19T04:28:50.928Z,60.60
2018-02-19T04:29:50.861Z,55.80
2018-02-19T04:30:50.796Z,53.20
2018-02-19T04:31:50.734Z,55.60
2018-02-19T04:32:50.678Z,56.20
2018-02-19T04:33:50.611Z,58.60
2018-02-19T04:34:50.550Z,58.20
2018-02-19T04:35:50.489Z,55.70
2018-02-19T04:36:50.425Z,59.30
2018-02-19T04:37:50.362Z,58.60
2018-02-19T04:38:50.306Z,61.20
2018-02-19T04:39:50.237Z,59.80
2018-02-19T04:40:50.174Z,59.40
2018-02-19T04:41:50.116Z,58.80
2018-02-19T04:42:50.051Z,63.00
2018-02-19T04:43:49.988Z,57.30
2018-02-19T04:44:49.927Z,58.80
2018-02-19T04:45:49.863Z,57.50
2018-02-19T04:46:49.801Z,57.80
2018-02-19T04:47:49.740Z,59.70
2018-02-19T04:48:49.678Z,59.10
2018-02-19T04:49:49.616Z,57.10
2018-02-19T04:50:49.553Z,60.70
2018-02-19T04:51:49.490Z,58.50
2018-02-19T04:52:49.430Z,60.10
2018-02-19T04:53:49.368Z,60.60
2018-02-19T04:54:49.302Z,60.60
2018-02-19T04:55:49.239Z,59.60
2018-02-19T04:56:49.179Z,59.80
2018-02-19T04:57:49.118Z,64.90
2018-02-19T04:58:49.047Z,63.50
2018-02-19T04:59:48.995Z,60.90
2018-02-19T05:00:48.936Z,56.20
2018-02-19T05:01:48.868Z,60.90
2018-02-19T05:02:48.810Z,62.00
2018-02-19T05:03:48.746Z,60.50
2018-02-19T05:04:48.679Z,59.70
2018-02-19T05:05:48.620Z,61.50
2018-02-19T05:06:48.554Z,56.70
2018-02-19T05:07:48.492Z,59.80
2018-02-19T05:08:48.432Z,60.80
2018-02-19T05:09:48.368Z,60.70
2018-02-19T05:10:48.305Z,59.10
2018-02-19T05:11:48.243Z,59.60
2018-02-19T05:12:48.185Z,58.00
2018-02-19T05:13:48.131Z,59.60
2018-02-19T05:14:48.057Z,61.90
2018-02-19T05:15:47.994Z,57.40
2018-02-19T05:16:47.932Z,60.70
2018-02-19T05:17:47.869Z,57.70
2018-02-19T05:18:47.808Z,61.00
2018-02-19T05:19:47.745Z,58.70
2018-02-19T05:20:47.683Z,62.90
2018-02-19T05:21:47.622Z,59.20
2018-02-19T05:22:47.557Z,60.20
2018-02-19T05:23:47.494Z,60.40
2018-02-19T05:24:47.429Z,61.60
2018-02-19T05:25:47.372Z,60.80
2018-02-19T05:26:47.306Z,60.60
2018-02-19T05:27:47.243Z,58.90
2018-02-19T05:28:47.180Z,57.70
2018-02-19T05:29:47.120Z,61.00
2018-02-19T05:30:47.057Z,53.50
2018-02-19T05:31:46.995Z,56.60
2018-02-19T05:32:46.931Z,59.40
2018-02-19T05:33:46.869Z,58.50
2018-02-19T05:34:46.806Z,57.10
2018-02-19T05:35:46.746Z,55.90
2018-02-19T05:36:46.684Z,55.20
2018-02-19T05:37:46.620Z,57.50
2018-02-19T05:38:46.561Z,54.30
2018-02-19T05:39:46.494Z,52.50
2018-02-19T05:40:46.431Z,56.00
2018-02-19T05:41:46.369Z,49.10
2018-02-19T05:42:46.305Z,52.90
2018-02-19T05:43:46.250Z,56.50
2018-02-19T05:44:46.183Z,53.60
2018-02-19T05:45:46.118Z,53.10
2018-02-19T05:46:46.054Z,52.90
2018-02-19T05:47:46.024Z,51.20
2018-02-19T05:48:45.931Z,52.80
2018-02-19T05:49:45.869Z,52.80
2018-02-19T05:50:45.806Z,52.40
2018-02-19T05:51:45.746Z,51.00
2018-02-19T05:52:45.678Z,50.70
2018-02-19T05:53:45.620Z,51.70
2018-02-19T05:54:45.558Z,51.00
2018-02-19T05:55:45.495Z,48.40
2018-02-19T05:56:45.432Z,48.80
2018-02-19T05:57:45.372Z,48.80
2018-02-19T05:58:45.308Z,49.00
2018-02-19T05:59:45.245Z,47.60
2018-02-19T06:00:45.181Z,46.00
2018-02-19T06:01:45.126Z,46.00
2018-02-19T06:02:45.057Z,45.90
2018-02-19T06:03:44.995Z,47.30
2018-02-19T06:04:44.935Z,50.80
2018-02-19T06:05:44.870Z,46.90
2018-02-19T06:06:44.808Z,47.40
2018-02-19T06:07:44.748Z,45.50
2018-02-19T06:08:44.684Z,46.60
2018-02-19T06:09:44.627Z,46.20
2018-02-19T06:10:44.560Z,46.40
2018-02-19T06:11:44.497Z,45.80
2018-02-19T06:12:44.434Z,43.00
2018-02-19T06:13:44.371Z,43.80
2018-02-19T06:14:44.309Z,45.80
2018-02-19T06:15:44.248Z,42.60
2018-02-19T06:16:44.186Z,44.30
2018-02-19T06:17:44.125Z,43.20
2018-02-19T06:18:44.059Z,44.00
2018-02-19T06:19:44.001Z,46.60
2018-02-19T06:20:43.935Z,41.60
2018-02-19T06:21:43.874Z,45.60
2018-02-19T06:22:43.808Z,44.90
2018-02-19T06:23:43.747Z,43.70
2018-02-19T06:24:43.686Z,43.70
2018-02-19T06:25:43.621Z,45.90
2018-02-19T06:26:43.558Z,45.10
2018-02-19T06:27:43.497Z,43.80
2018-02-19T06:28:43.434Z,45.60
2018-02-19T06:29:43.373Z,46.50
2018-02-19T06:30:43.309Z,42.60
2018-02-19T06:31:43.245Z,43.70
2018-02-19T06:32:43.184Z,45.10
2018-02-19T06:33:43.122Z,43.90
2018-02-19T06:34:43.097Z,42.40
2018-02-19T06:35:42.998Z,42.40
2018-02-19T06:36:42.934Z,39.90
2018-02-19T06:37:42.875Z,42.40
2018-02-19T06:38:42.810Z,41.30
2018-02-19T06:39:42.747Z,40.80
2018-02-19T06:40:42.683Z,41.50
2018-02-19T06:41:42.620Z,41.40
2018-02-19T06:42:42.559Z,40.70
2018-02-19T06:43:42.496Z,43.10
2018-02-19T06:44:42.432Z,43.00
2018-02-19T06:45:42.374Z,43.40
2018-02-19T06:46:42.309Z,42.50
2018-02-19T06:47:42.247Z,43.10
2018-02-19T06:48:42.185Z,43.60
2018-02-19T06:49:42.124Z,42.50
2018-02-19T06:50:42.057Z,43.00
2018-02-19T06:51:41.997Z,42.60
2018-02-19T06:52:41.937Z,43.80
2018-02-19T06:53:41.871Z,41.50
2018-02-19T06:54:41.808Z,42.60
2018-02-19T06:55:41.750Z,40.40
2018-02-19T06:56:41.683Z,41.60
2018-02-19T06:57:41.620Z,40.10
2018-02-19T06:58:41.561Z,42.10
2018-02-19T06:59:41.494Z,40.00
2018-02-19T07:00:41.435Z,40.00
2018-02-19T07:01:41.386Z,41.20
2018-02-19T07:02:41.310Z,42.40
2018-02-19T07:03:41.250Z,39.00
2018-02-19T07:04:41.183Z,40.60
2018-02-19T07:05:41.120Z,45.90
2018-02-19T07:06:41.059Z,41.80
2018-02-19T07:07:40.996Z,39.30
2018-02-19T07:08:40.935Z,39.80
2018-02-19T07:09:40.876Z,39.60
2018-02-19T07:10:40.809Z,40.40
2018-02-19T07:11:40.747Z,39.40
2018-02-19T07:12:40.685Z,39.60
2018-02-19T07:13:40.621Z,40.20
2018-02-19T07:14:40.559Z,40.90
2018-02-19T07:15:40.497Z,39.80
2018-02-19T07:16:40.439Z,41.50
2018-02-19T07:17:40.377Z,41.80
2018-02-19T07:18:40.312Z,41.00
2018-02-19T07:19:40.247Z,39.80
2018-02-19T07:20:40.185Z,41.20
2018-02-19T07:21:40.123Z,42.30
2018-02-19T07:22:40.060Z,44.50
2018-02-19T07:23:39.999Z,43.30
2018-02-19T07:24:39.935Z,43.80
2018-02-19T07:25:39.879Z,40.10
2018-02-19T07:26:39.810Z,43.60
2018-02-19T07:27:39.748Z,42.90
2018-02-19T07:28:39.686Z,41.60
2018-02-19T07:29:39.623Z,38.30
2018-02-19T07:30:39.563Z,40.30
2018-02-19T07:31:39.498Z,43.00
2018-02-19T07:32:39.436Z,43.80
2018-02-19T07:33:39.378Z,43.50
2018-02-19T07:34:39.311Z,41.00
2018-02-19T07:35:39.250Z,39.50
2018-02-19T07:36:39.190Z,41.50
2018-02-19T07:37:39.124Z,39.80
2018-02-19T07:38:39.061Z,41.50
2018-02-19T07:39:39.003Z,43.00
2018-02-19T07:40:38.938Z,40.40
2018-02-19T07:41:38.875Z,42.20
2018-02-19T07:42:38.813Z,40.40
2018-02-19T07:43:38.749Z,40.70
2018-02-19T07:44:38.692Z,40.90
2018-02-19T07:45:38.629Z,44.10
2018-02-19T07:46:38.564Z,38.20
2018-02-19T07:47:38.500Z,40.60
2018-02-19T07:48:38.444Z,39.80
2018-02-19T07:49:38.378Z,37.70
2018-02-19T07:50:38.315Z,39.30
2018-02-19T07:51:38.254Z,40.70
2018-02-19T07:52:38.190Z,41.20
2018-02-19T07:53:38.140Z,41.40
2018-02-19T07:54:38.067Z,39.80
2018-02-19T07:55:38.003Z,40.60
2018-02-19T07:56:37.943Z,40.30
2018-02-19T07:57:37.881Z,41.40
2018-02-19T07:58:37.818Z,42.10
2018-02-19T07:59:37.758Z,38.40
2018-02-19T08:00:37.694Z,40.10
2018-02-19T08:01:37.635Z,46.90
2018-02-19T08:02:37.569Z,39.80
2018-02-19T08:03:37.509Z,40.90
2018-02-19T08:04:37.447Z,39.50
2018-02-19T08:05:37.384Z,38.50
2018-02-19T08:06:37.323Z,37.80
2018-02-19T08:07:37.263Z,38.00
2018-02-19T08:08:37.198Z,38.50
2018-02-19T08:09:37.137Z,38.70
2018-02-19T08:10:37.074Z,36.80
2018-02-19T08:11:37.011Z,39.20
2018-02-19T08:12:36.953Z,39.10
2018-02-19T08:13:36.887Z,36.50
2018-02-19T08:14:36.828Z,38.90
2018-02-19T08:15:36.765Z,38.80
2018-02-19T08:16:36.703Z,41.60
2018-02-19T08:17:36.639Z,37.40
2018-02-19T08:18:36.577Z,38.70
2018-02-19T08:19:36.516Z,38.70
2018-02-19T08:20:36.455Z,36.20
2018-02-19T08:21:36.394Z,40.10
2018-02-19T08:22:36.329Z,37.40
2018-02-19T08:23:36.272Z,36.10
2018-02-19T08:24:36.208Z,38.10
2018-02-19T08:25:36.144Z,35.60
2018-02-19T08:26:36.081Z,38.20
2018-02-19T08:27:36.020Z,35.80
2018-02-19T08:28:35.956Z,36.20
2018-02-19T08:29:35.897Z,36.40
2018-02-19T08:30:35.834Z,38.60
2018-02-19T08:31:35.771Z,35.60
2018-02-19T08:32:35.710Z,36.50
2018-02-19T08:33:35.650Z,38.30
2018-02-19T08:34:35.597Z,34.80
2018-02-19T08:35:35.531Z,36.40
2018-02-19T08:36:35.467Z,36.40
2018-02-19T08:37:35.403Z,38.20
2018-02-19T08:38:35.337Z,37.20
2018-02-19T08:39:35.277Z,38.50
2018-02-19T08:40:35.215Z,35.80
2018-02-19T08:41:35.155Z,39.50
2018-02-19T08:42:35.092Z,37.90
2018-02-19T08:43:35.031Z,38.70
2018-02-19T08:44:34.969Z,38.10
2018-02-19T08:45:34.908Z,38.20
2018-02-19T08:46:34.852Z,40.20
2018-02-19T08:47:34.784Z,39.10
2018-02-19T08:48:34.727Z,39.50
2018-02-19T08:49:34.659Z,41.40
2018-02-19T08:50:34.599Z,42.70
2018-02-19T08:51:34.538Z,40.80
2018-02-19T08:52:34.482Z,39.50
2018-02-19T08:53:35.467Z,38.70
2018-02-19T08:54:34.349Z,39.30
2018-02-19T08:55:34.287Z,41.60
2018-02-19T08:56:34.225Z,42.50
2018-02-19T08:57:34.167Z,40.80
2018-02-19T08:58:34.102Z,41.50
2018-02-19T08:59:34.096Z,38.90
2018-02-19T09:00:33.983Z,39.70
2018-02-19T09:01:33.923Z,37.40
2018-02-19T09:02:33.854Z,38.00
2018-02-19T09:03:33.793Z,39.60
2018-02-19T09:04:33.731Z,38.00
2018-02-19T09:05:33.718Z,36.80
2018-02-19T09:06:33.608Z,38.70
2018-02-19T09:07:33.545Z,37.60
2018-02-19T09:08:33.491Z,39.80
2018-02-19T09:09:33.425Z,39.70
2018-02-19T09:10:33.361Z,42.00
2018-02-19T09:11:33.300Z,38.50
2018-02-19T09:12:33.237Z,39.70
2018-02-19T09:13:33.177Z,36.50
2018-02-19T09:14:33.114Z,38.90
2018-02-19T09:15:33.053Z,37.30
2018-02-19T09:16:32.992Z,36.00
2018-02-19T09:17:32.930Z,37.20
2018-02-19T09:18:32.868Z,36.60
2018-02-19T09:19:32.806Z,38.30
2018-02-19T09:20:32.746Z,37.30
2018-02-19T09:21:32.686Z,40.80
2018-02-19T09:22:32.624Z,36.80
2018-02-19T09:23:32.567Z,37.90
2018-02-19T09:24:32.505Z,40.10
2018-02-19T09:25:32.437Z,41.40
2018-02-19T09:26:32.374Z,39.10
2018-02-19T09:27:32.317Z,39.10
2018-02-19T09:28:32.253Z,36.10
2018-02-19T09:29:32.191Z,35.70
2018-02-19T09:30:32.972Z,39.70
2018-02-19T09:31:32.066Z,37.10
2018-02-19T09:32:32.006Z,40.60
2018-02-19T09:33:31.945Z,40.10
2018-02-19T09:34:31.881Z,35.50
2018-02-19T09:35:31.820Z,36.40
2018-02-19T09:36:31.760Z,36.60
2018-02-19T09:37:31.698Z,38.30
2018-02-19T09:38:31.638Z,39.60
2018-02-19T09:39:31.577Z,39.30
2018-02-19T09:40:31.515Z,40.90
2018-02-19T09:41:31.453Z,37.00
2018-02-19T09:42:31.393Z,35.80
2018-02-19T09:43:31.330Z,37.40
2018-02-19T09:44:31.271Z,36.30
2018-02-19T09:45:31.209Z,42.10
2018-02-19T09:46:31.145Z,37.40
2018-02-19T09:47:31.085Z,36.00
2018-02-19T09:48:31.024Z,35.90
2018-02-19T09:49:30.963Z,36.10
2018-02-19T09:50:30.900Z,37.10
2018-02-19T09:51:30.839Z,35.60
2018-02-19T09:52:30.776Z,37.40
2018-02-19T09:53:30.716Z,37.30
2018-02-19T09:54:30.654Z,35.60
2018-02-19T09:55:30.596Z,36.30
2018-02-19T09:56:30.530Z,36.40
2018-02-19T09:57:30.473Z,37.20
2018-02-19T09:58:30.423Z,36.60
2018-02-19T09:59:30.350Z,36.40
2018-02-19T10:00:30.289Z,36.70
2018-02-19T10:01:30.226Z,35.90
2018-02-19T10:02:30.164Z,34.50
2018-02-19T10:03:30.103Z,34.90
2018-02-19T10:04:30.041Z,37.80
2018-02-19T10:05:30.003Z,35.00
2018-02-19T10:06:29.919Z,35.20
2018-02-19T10:07:29.857Z,36.10
2018-02-19T10:08:29.796Z,37.80
2018-02-19T10:09:29.733Z,31.50
2018-02-19T10:10:29.674Z,35.40
2018-02-19T10:11:29.610Z,36.70
2018-02-19T10:12:29.551Z,34.40
2018-02-19T10:13:29.493Z,32.60
2018-02-19T10:14:29.430Z,38.50
2018-02-19T10:15:29.368Z,35.50
2018-02-19T10:16:29.306Z,35.40
2018-02-19T10:17:29.245Z,33.20
2018-02-19T10:18:29.183Z,35.00
2018-02-19T10:19:29.123Z,33.90
2018-02-19T10:20:29.062Z,32.30
2018-02-19T10:21:28.999Z,37.90
2018-02-19T10:22:28.938Z,34.30
2018-02-19T10:23:28.877Z,34.90
2018-02-19T10:24:28.819Z,35.20
2018-02-19T10:25:28.755Z,34.50
2018-02-19T10:26:28.693Z,32.50
2018-02-19T10:27:28.634Z,33.90
2018-02-19T10:28:28.570Z,34.50
2018-02-19T10:29:28.511Z,32.10
2018-02-19T10:30:28.449Z,34.00
2018-02-19T10:31:28.388Z,32.30
2018-02-19T10:32:28.325Z,37.70
2018-02-19T10:33:28.267Z,34.80
2018-02-19T10:34:28.203Z,36.70
2018-02-19T10:35:28.143Z,32.80
2018-02-19T10:36:28.081Z,34.30
2018-02-19T10:37:28.021Z,32.60
2018-02-19T10:38:27.960Z,31.90
2018-02-19T10:39:27.903Z,34.70
2018-02-19T10:40:27.839Z,33.40
2018-02-19T10:41:27.779Z,33.80
2018-02-19T10:42:27.719Z,33.50
2018-02-19T10:43:27.656Z,35.20
2018-02-19T10:44:27.594Z,34.00
2018-02-19T10:45:27.532Z,33.80
2018-02-19T10:46:27.473Z,33.60
2018-02-19T10:47:27.403Z,31.80
2018-02-19T10:48:27.404Z,33.40
2018-02-19T10:49:27.289Z,32.30
2018-02-19T10:50:27.228Z,35.00
2018-02-19T10:51:27.165Z,34.20
2018-02-19T10:52:27.106Z,30.30
2018-02-19T10:53:27.062Z,33.00
2018-02-19T10:54:26.984Z,32.10
2018-02-19T10:55:26.922Z,32.60
2018-02-19T10:56:26.859Z,33.20
2018-02-19T10:57:26.806Z,35.40
2018-02-19T10:58:26.738Z,33.90
2018-02-19T10:59:26.677Z,33.70
2018-02-19T11:00:26.622Z,33.20
2018-02-19T11:01:26.555Z,34.70
2018-02-19T11:02:26.494Z,33.90
2018-02-19T11:03:26.437Z,36.10
2018-02-19T11:04:26.372Z,36.80
2018-02-19T11:05:26.312Z,34.50
2018-02-19T11:06:26.249Z,34.20
2018-02-19T11:07:26.188Z,32.30
2018-02-19T11:08:26.143Z,32.20
2018-02-19T11:09:26.068Z,33.40
2018-02-19T11:10:26.005Z,32.70
2018-02-19T11:11:25.944Z,34.00
2018-02-19T11:12:25.884Z,34.00
2018-02-19T11:13:25.850Z,33.10
2018-02-19T11:14:25.758Z,33.00
2018-02-19T11:15:25.700Z,35.10
2018-02-19T11:16:25.641Z,35.70
2018-02-19T11:17:25.577Z,33.30
2018-02-19T11:18:25.515Z,35.30
2018-02-19T11:19:25.455Z,37.40
2018-02-19T11:20:25.394Z,35.40
2018-02-19T11:21:25.332Z,36.60
2018-02-19T11:22:25.270Z,35.30
2018-02-19T11:23:25.215Z,34.00
2018-02-19T11:24:25.151Z,35.10
2018-02-19T11:25:25.090Z,33.10
2018-02-19T11:26:25.029Z,33.20
2018-02-19T11:27:24.968Z,35.60
2018-02-19T11:28:24.907Z,36.20
2018-02-19T11:29:24.855Z,34.30
2018-02-19T11:30:24.786Z,35.30
2018-02-19T11:31:24.725Z,34.40
2018-02-19T11:32:24.662Z,33.60
2018-02-19T11:33:24.602Z,33.90
2018-02-19T11:34:24.540Z,36.70
2018-02-19T11:35:24.481Z,33.50
2018-02-19T11:36:24.426Z,33.60
2018-02-19T11:37:24.376Z,34.10
2018-02-19T11:38:24.299Z,34.50
2018-02-19T11:39:24.244Z,35.10
2018-02-19T11:40:24.177Z,34.60
2018-02-19T11:41:24.115Z,36.60
2018-02-19T11:42:24.062Z,33.30
2018-02-19T11:43:23.994Z,34.20
2018-02-19T11:44:23.934Z,33.60
2018-02-19T11:45:23.879Z,34.30
2018-02-19T11:46:23.810Z,36.80
2018-02-19T11:47:23.750Z,36.90
2018-02-19T11:48:23.687Z,34.30
2018-02-19T11:49:23.787Z,32.10
2018-02-19T11:50:23.567Z,31.30
2018-02-19T11:51:23.506Z,33.50
2018-02-19T11:52:23.445Z,35.80
2018-02-19T11:53:23.388Z,33.20
2018-02-19T11:54:23.322Z,34.60
2018-02-19T11:55:23.262Z,33.60
2018-02-19T11:56:23.203Z,32.70
2018-02-19T11:57:23.142Z,33.70
2018-02-19T11:58:23.081Z,32.90
2018-02-19T11:59:23.023Z,35.50
2018-02-19T12:00:22.960Z,34.70
2018-02-19T12:01:22.910Z,34.70
2018-02-19T12:02:22.839Z,33.10
2018-02-19T12:03:22.778Z,30.80
2018-02-19T12:04:22.719Z,29.20
2018-02-19T12:05:22.665Z,29.50
2018-02-19T12:06:22.597Z,31.50
2018-02-19T12:07:22.534Z,32.80
2018-02-19T12:08:22.476Z,30.30
2018-02-19T12:09:22.416Z,30.50
2018-02-19T12:10:22.358Z,29.90
2018-02-19T12:11:22.291Z,31.00
2018-02-19T12:12:22.263Z,28.60
2018-02-19T12:13:22.174Z,28.60
2018-02-19T12:14:22.111Z,22.00
2018-02-19T12:15:22.050Z,23.60
2018-02-19T12:16:21.990Z,23.50
2018-02-19T12:17:21.937Z,25.40
2018-02-19T12:18:21.870Z,23.40
2018-02-19T12:19:21.808Z,24.30
2018-02-19T12:20:21.748Z,23.90
2018-02-19T12:21:21.692Z,25.60
2018-02-19T12:22:21.629Z,25.50
2018-02-19T12:23:21.567Z,24.20
2018-02-19T12:24:21.509Z,22.30
2018-02-19T12:25:21.446Z,19.90
2018-02-19T12:26:21.385Z,18.80
2018-02-19T12:27:21.324Z,17.50
2018-02-19T12:28:21.269Z,17.30
2018-02-19T12:29:21.205Z,17.10
2018-02-19T12:30:21.144Z,18.90
2018-02-19T12:31:21.085Z,17.30
2018-02-19T12:32:21.025Z,20.40
2018-02-19T12:33:20.965Z,16.70
2018-02-19T12:34:20.905Z,20.90
2018-02-19T12:35:20.843Z,23.10
2018-02-19T12:36:20.784Z,21.30
2018-02-19T12:37:20.723Z,23.80
2018-02-19T12:38:20.662Z,21.00
2018-02-19T12:39:20.601Z,20.20
2018-02-19T12:40:20.539Z,21.80
2018-02-19T12:41:20.482Z,20.90
2018-02-19T12:42:20.416Z,24.60
2018-02-19T12:43:20.360Z,20.60
2018-02-19T12:44:20.298Z,18.90
2018-02-19T12:45:20.235Z,18.30
2018-02-19T12:46:20.176Z,19.40
2018-02-19T12:47:20.115Z,18.40
2018-02-19T12:48:20.056Z,18.00
2018-02-19T12:49:19.997Z,18.90
2018-02-19T12:50:19.934Z,19.30
2018-02-19T12:51:19.875Z,16.70